sensor_id;sensor_type;location;lat;lon;timestamp;temperature;humidity
63317;DHT22;49822;41.468;13.560;2023-09-19T00:00:35;23.50;75.00
63317;DHT22;49822;41.468;13.560;2023-09-19T00:03:02;23.60;74.60
63317;DHT22;49822;41.468;13.560;2023-09-19T00:05:29;23.50;75.50
63317;DHT22;49822;41.468;13.560;2023-09-19T00:07:57;23.50;76.10
63317;DHT22;49822;41.468;13.560;2023-09-19T00:10:27;23.30;76.10
63317;DHT22;49822;41.468;13.560;2023-09-19T00:12:57;23.40;75.80
63317;DHT22;49822;41.468;13.560;2023-09-19T00:15:28;23.40;75.80
63317;DHT22;49822;41.468;13.560;2023-09-19T00:17:55;23.40;75.40
63317;DHT22;49822;41.468;13.560;2023-09-19T00:20:21;23.40;75.50
63317;DHT22;49822;41.468;13.560;2023-09-19T00:22:51;23.40;75.20
63317;DHT22;49822;41.468;13.560;2023-09-19T00:25:22;23.50;74.80
63317;DHT22;49822;41.468;13.560;2023-09-19T00:27:48;23.30;74.90
63317;DHT22;49822;41.468;13.560;2023-09-19T00:30:18;23.00;75.50
63317;DHT22;49822;41.468;13.560;2023-09-19T00:32:52;22.80;75.80
63317;DHT22;49822;41.468;13.560;2023-09-19T00:35:18;22.70;75.80
63317;DHT22;49822;41.468;13.560;2023-09-19T00:37:44;22.80;76.00
63317;DHT22;49822;41.468;13.560;2023-09-19T00:40:11;22.90;75.60
63317;DHT22;49822;41.468;13.560;2023-09-19T00:42:45;22.90;75.60
63317;DHT22;49822;41.468;13.560;2023-09-19T00:45:12;22.90;75.10
63317;DHT22;49822;41.468;13.560;2023-09-19T00:47:47;22.90;75.30
63317;DHT22;49822;41.468;13.560;2023-09-19T00:50:17;23.00;75.30
63317;DHT22;49822;41.468;13.560;2023-09-19T00:52:52;23.00;75.10
63317;DHT22;49822;41.468;13.560;2023-09-19T00:55:19;22.60;76.00
63317;DHT22;49822;41.468;13.560;2023-09-19T00:57:48;22.40;76.30
63317;DHT22;49822;41.468;13.560;2023-09-19T01:00:20;22.30;76.60
63317;DHT22;49822;41.468;13.560;2023-09-19T01:02:51;22.30;76.90
63317;DHT22;49822;41.468;13.560;2023-09-19T01:05:17;22.30;76.70
63317;DHT22;49822;41.468;13.560;2023-09-19T01:07:44;22.30;76.60
63317;DHT22;49822;41.468;13.560;2023-09-19T01:10:12;22.30;76.70
63317;DHT22;49822;41.468;13.560;2023-09-19T01:18:03;21.70;78.00
63317;DHT22;49822;41.468;13.560;2023-09-19T01:20:42;21.80;77.80
63317;DHT22;49822;41.468;13.560;2023-09-19T01:32:06;22.20;76.80
63317;DHT22;49822;41.468;13.560;2023-09-19T01:34:55;22.10;77.50
63317;DHT22;49822;41.468;13.560;2023-09-19T01:37:30;22.00;77.80
63317;DHT22;49822;41.468;13.560;2023-09-19T01:45:53;21.80;77.80
63317;DHT22;49822;41.468;13.560;2023-09-19T01:48:40;22.00;77.60
63317;DHT22;49822;41.468;13.560;2023-09-19T01:51:11;22.00;77.30
63317;DHT22;49822;41.468;13.560;2023-09-19T01:54:02;22.00;77.40
63317;DHT22;49822;41.468;13.560;2023-09-19T01:56:34;21.90;77.80
63317;DHT22;49822;41.468;13.560;2023-09-19T01:59:10;21.80;78.60
63317;DHT22;49822;41.468;13.560;2023-09-19T02:01:38;21.60;78.90
63317;DHT22;49822;41.468;13.560;2023-09-19T02:04:05;21.60;78.80
63317;DHT22;49822;41.468;13.560;2023-09-19T02:06:32;21.60;78.70
63317;DHT22;49822;41.468;13.560;2023-09-19T02:08:59;21.60;78.30
63317;DHT22;49822;41.468;13.560;2023-09-19T02:11:26;21.70;78.20
63317;DHT22;49822;41.468;13.560;2023-09-19T02:13:52;21.60;78.60
63317;DHT22;49822;41.468;13.560;2023-09-19T02:16:20;21.50;78.70
63317;DHT22;49822;41.468;13.560;2023-09-19T02:18:48;21.50;79.50
63317;DHT22;49822;41.468;13.560;2023-09-19T02:21:18;21.30;79.80
63317;DHT22;49822;41.468;13.560;2023-09-19T02:23:45;21.30;79.20
63317;DHT22;49822;41.468;13.560;2023-09-19T02:26:13;21.40;79.00
63317;DHT22;49822;41.468;13.560;2023-09-19T02:28:40;21.50;78.70
63317;DHT22;49822;41.468;13.560;2023-09-19T02:31:11;21.60;78.70
63317;DHT22;49822;41.468;13.560;2023-09-19T02:33:43;21.60;78.50
63317;DHT22;49822;41.468;13.560;2023-09-19T02:36:09;21.60;78.30
63317;DHT22;49822;41.468;13.560;2023-09-19T02:38:37;21.70;78.80
63317;DHT22;49822;41.468;13.560;2023-09-19T02:41:03;21.50;79.50
63317;DHT22;49822;41.468;13.560;2023-09-19T02:43:30;21.30;80.00
63317;DHT22;49822;41.468;13.560;2023-09-19T02:45:56;21.20;80.10
63317;DHT22;49822;41.468;13.560;2023-09-19T02:48:23;21.20;79.90
63317;DHT22;49822;41.468;13.560;2023-09-19T02:50:50;21.20;79.60
63317;DHT22;49822;41.468;13.560;2023-09-19T02:53:17;21.30;79.30
63317;DHT22;49822;41.468;13.560;2023-09-19T02:55:44;21.40;79.30
63317;DHT22;49822;41.468;13.560;2023-09-19T02:58:12;21.50;79.20
63317;DHT22;49822;41.468;13.560;2023-09-19T03:00:42;21.50;79.50
63317;DHT22;49822;41.468;13.560;2023-09-19T03:03:13;21.40;79.50
63317;DHT22;49822;41.468;13.560;2023-09-19T03:05:41;21.40;79.40
63317;DHT22;49822;41.468;13.560;2023-09-19T03:08:15;21.40;79.40
63317;DHT22;49822;41.468;13.560;2023-09-19T03:10:41;21.40;79.30
63317;DHT22;49822;41.468;13.560;2023-09-19T03:13:07;21.40;79.50
63317;DHT22;49822;41.468;13.560;2023-09-19T03:15:40;21.40;79.30
63317;DHT22;49822;41.468;13.560;2023-09-19T03:18:11;21.10;80.70
63317;DHT22;49822;41.468;13.560;2023-09-19T03:20:37;21.00;80.80
63317;DHT22;49822;41.468;13.560;2023-09-19T03:23:05;21.00;80.90
63317;DHT22;49822;41.468;13.560;2023-09-19T03:25:34;21.10;80.40
63317;DHT22;49822;41.468;13.560;2023-09-19T03:28:03;21.10;80.10
63317;DHT22;49822;41.468;13.560;2023-09-19T03:30:32;21.20;80.00
63317;DHT22;49822;41.468;13.560;2023-09-19T03:33:04;21.10;80.30
63317;DHT22;49822;41.468;13.560;2023-09-19T03:35:31;21.10;80.80
63317;DHT22;49822;41.468;13.560;2023-09-19T03:37:57;21.20;80.90
63317;DHT22;49822;41.468;13.560;2023-09-19T03:40:24;21.20;80.60
63317;DHT22;49822;41.468;13.560;2023-09-19T03:42:51;21.10;80.30
63317;DHT22;49822;41.468;13.560;2023-09-19T03:45:19;21.20;80.10
63317;DHT22;49822;41.468;13.560;2023-09-19T03:47:51;21.20;79.60
63317;DHT22;49822;41.468;13.560;2023-09-19T03:50:20;21.20;79.90
63317;DHT22;49822;41.468;13.560;2023-09-19T03:52:47;21.10;79.70
63317;DHT22;49822;41.468;13.560;2023-09-19T03:55:13;21.20;79.70
63317;DHT22;49822;41.468;13.560;2023-09-19T03:57:40;21.20;80.00
63317;DHT22;49822;41.468;13.560;2023-09-19T04:00:09;21.20;80.60
63317;DHT22;49822;41.468;13.560;2023-09-19T04:02:41;21.20;81.30
63317;DHT22;49822;41.468;13.560;2023-09-19T04:05:07;21.30;81.20
63317;DHT22;49822;41.468;13.560;2023-09-19T04:07:34;21.10;81.00
63317;DHT22;49822;41.468;13.560;2023-09-19T04:10:01;21.10;80.60
63317;DHT22;49822;41.468;13.560;2023-09-19T04:12:29;21.10;81.10
63317;DHT22;49822;41.468;13.560;2023-09-19T04:14:55;21.00;80.80
63317;DHT22;49822;41.468;13.560;2023-09-19T04:17:22;21.00;80.10
63317;DHT22;49822;41.468;13.560;2023-09-19T04:19:50;20.90;79.80
63317;DHT22;49822;41.468;13.560;2023-09-19T04:22:16;20.90;80.50
63317;DHT22;49822;41.468;13.560;2023-09-19T04:24:42;20.70;80.60
63317;DHT22;49822;41.468;13.560;2023-09-19T04:27:08;20.60;80.90
63317;DHT22;49822;41.468;13.560;2023-09-19T04:29:35;20.60;81.60
63317;DHT22;49822;41.468;13.560;2023-09-19T04:32:04;20.60;81.70
63317;DHT22;49822;41.468;13.560;2023-09-19T04:34:31;20.70;81.40
63317;DHT22;49822;41.468;13.560;2023-09-19T04:36:57;20.80;81.70
63317;DHT22;49822;41.468;13.560;2023-09-19T04:39:27;20.80;82.10
63317;DHT22;49822;41.468;13.560;2023-09-19T04:41:53;20.70;82.20
63317;DHT22;49822;41.468;13.560;2023-09-19T04:44:19;20.80;82.20
63317;DHT22;49822;41.468;13.560;2023-09-19T04:46:47;20.70;83.00
63317;DHT22;49822;41.468;13.560;2023-09-19T04:49:13;20.50;82.40
63317;DHT22;49822;41.468;13.560;2023-09-19T04:51:39;20.50;82.20
63317;DHT22;49822;41.468;13.560;2023-09-19T04:54:06;20.50;81.40
63317;DHT22;49822;41.468;13.560;2023-09-19T04:56:32;20.30;82.00
63317;DHT22;49822;41.468;13.560;2023-09-19T04:58:59;20.30;82.30
63317;DHT22;49822;41.468;13.560;2023-09-19T05:01:26;20.40;82.20
63317;DHT22;49822;41.468;13.560;2023-09-19T05:03:52;20.30;82.00
63317;DHT22;49822;41.468;13.560;2023-09-19T05:06:19;20.50;81.40
63317;DHT22;49822;41.468;13.560;2023-09-19T05:08:57;20.50;80.80
63317;DHT22;49822;41.468;13.560;2023-09-19T05:11:23;20.50;80.90
63317;DHT22;49822;41.468;13.560;2023-09-19T05:13:50;20.60;80.90
63317;DHT22;49822;41.468;13.560;2023-09-19T05:19:38;20.40;80.40
63317;DHT22;49822;41.468;13.560;2023-09-19T05:22:04;20.20;81.10
63317;DHT22;49822;41.468;13.560;2023-09-19T05:24:32;20.20;79.90
63317;DHT22;49822;41.468;13.560;2023-09-19T05:26:58;20.10;80.00
63317;DHT22;49822;41.468;13.560;2023-09-19T05:29:25;20.20;79.60
63317;DHT22;49822;41.468;13.560;2023-09-19T05:31:51;20.40;79.60
63317;DHT22;49822;41.468;13.560;2023-09-19T05:34:17;20.50;80.10
63317;DHT22;49822;41.468;13.560;2023-09-19T05:36:43;20.60;80.10
63317;DHT22;49822;41.468;13.560;2023-09-19T05:39:09;20.80;80.40
63317;DHT22;49822;41.468;13.560;2023-09-19T05:41:37;20.80;80.30
63317;DHT22;49822;41.468;13.560;2023-09-19T05:44:14;21.00;79.30
63317;DHT22;49822;41.468;13.560;2023-09-19T05:46:41;21.10;79.10
63317;DHT22;49822;41.468;13.560;2023-09-19T05:49:07;21.10;78.40
63317;DHT22;49822;41.468;13.560;2023-09-19T05:51:34;21.20;78.50
63317;DHT22;49822;41.468;13.560;2023-09-19T05:54:01;21.30;78.90
63317;DHT22;49822;41.468;13.560;2023-09-19T05:56:27;21.30;79.10
63317;DHT22;49822;41.468;13.560;2023-09-19T05:58:53;21.40;79.30
63317;DHT22;49822;41.468;13.560;2023-09-19T06:01:20;21.50;79.30
63317;DHT22;49822;41.468;13.560;2023-09-19T06:03:46;21.50;79.50
63317;DHT22;49822;41.468;13.560;2023-09-19T06:06:12;21.50;79.30
63317;DHT22;49822;41.468;13.560;2023-09-19T06:08:38;21.70;79.90
63317;DHT22;49822;41.468;13.560;2023-09-19T06:11:05;21.70;79.10
63317;DHT22;49822;41.468;13.560;2023-09-19T06:13:35;21.70;77.10
63317;DHT22;49822;41.468;13.560;2023-09-19T06:16:01;21.60;76.10
63317;DHT22;49822;41.468;13.560;2023-09-19T06:18:33;21.90;77.00
63317;DHT22;49822;41.468;13.560;2023-09-19T06:20:59;22.00;77.20
63317;DHT22;49822;41.468;13.560;2023-09-19T06:23:26;22.00;77.80
63317;DHT22;49822;41.468;13.560;2023-09-19T06:25:54;21.90;78.10
63317;DHT22;49822;41.468;13.560;2023-09-19T06:28:21;22.00;77.80
63317;DHT22;49822;41.468;13.560;2023-09-19T06:30:51;22.00;78.20
63317;DHT22;49822;41.468;13.560;2023-09-19T06:33:17;22.30;78.30
63317;DHT22;49822;41.468;13.560;2023-09-19T06:35:44;22.30;78.80
63317;DHT22;49822;41.468;13.560;2023-09-19T06:38:11;22.40;77.90
63317;DHT22;49822;41.468;13.560;2023-09-19T06:40:42;22.40;77.30
63317;DHT22;49822;41.468;13.560;2023-09-19T06:43:10;22.50;76.90
63317;DHT22;49822;41.468;13.560;2023-09-19T06:45:38;22.50;77.20
63317;DHT22;49822;41.468;13.560;2023-09-19T06:48:05;22.70;77.20
63317;DHT22;49822;41.468;13.560;2023-09-19T06:50:33;22.90;76.70
63317;DHT22;49822;41.468;13.560;2023-09-19T06:53:02;23.10;77.20
63317;DHT22;49822;41.468;13.560;2023-09-19T06:55:28;23.10;77.40
63317;DHT22;49822;41.468;13.560;2023-09-19T06:57:57;23.20;76.50
63317;DHT22;49822;41.468;13.560;2023-09-19T07:00:26;23.30;76.70
63317;DHT22;49822;41.468;13.560;2023-09-19T07:03:05;23.40;76.50
63317;DHT22;49822;41.468;13.560;2023-09-19T07:05:34;23.50;76.50
63317;DHT22;49822;41.468;13.560;2023-09-19T07:08:06;23.70;75.80
63317;DHT22;49822;41.468;13.560;2023-09-19T07:10:33;23.70;75.70
63317;DHT22;49822;41.468;13.560;2023-09-19T07:15:28;23.90;75.40
63317;DHT22;49822;41.468;13.560;2023-09-19T07:17:57;24.00;74.80
63317;DHT22;49822;41.468;13.560;2023-09-19T07:20:24;23.90;75.20
63317;DHT22;49822;41.468;13.560;2023-09-19T07:22:55;24.00;74.70
63317;DHT22;49822;41.468;13.560;2023-09-19T07:25:22;24.10;74.80
63317;DHT22;49822;41.468;13.560;2023-09-19T07:27:48;24.30;74.70
63317;DHT22;49822;41.468;13.560;2023-09-19T07:30:14;24.40;74.70
63317;DHT22;49822;41.468;13.560;2023-09-19T07:32:43;24.60;74.30
63317;DHT22;49822;41.468;13.560;2023-09-19T07:35:10;24.60;73.00
63317;DHT22;49822;41.468;13.560;2023-09-19T07:37:37;24.80;72.30
63317;DHT22;49822;41.468;13.560;2023-09-19T07:40:07;24.80;72.20
63317;DHT22;49822;41.468;13.560;2023-09-19T07:42:36;24.90;70.90
63317;DHT22;49822;41.468;13.560;2023-09-19T07:45:09;24.80;71.60
63317;DHT22;49822;41.468;13.560;2023-09-19T07:47:46;24.90;71.50
63317;DHT22;49822;41.468;13.560;2023-09-19T07:50:22;24.90;71.10
63317;DHT22;49822;41.468;13.560;2023-09-19T07:52:49;25.10;69.90
63317;DHT22;49822;41.468;13.560;2023-09-19T07:55:20;25.10;68.30
63317;DHT22;49822;41.468;13.560;2023-09-19T07:57:50;25.20;68.60
63317;DHT22;49822;41.468;13.560;2023-09-19T08:00:17;25.30;69.00
63317;DHT22;49822;41.468;13.560;2023-09-19T08:02:45;25.50;68.30
63317;DHT22;49822;41.468;13.560;2023-09-19T08:05:12;25.60;68.80
63317;DHT22;49822;41.468;13.560;2023-09-19T08:07:42;25.70;68.60
63317;DHT22;49822;41.468;13.560;2023-09-19T08:10:11;25.90;68.40
63317;DHT22;49822;41.468;13.560;2023-09-19T08:12:42;26.00;69.10
63317;DHT22;49822;41.468;13.560;2023-09-19T08:15:24;26.10;69.10
63317;DHT22;49822;41.468;13.560;2023-09-19T08:17:52;26.20;67.90
63317;DHT22;49822;41.468;13.560;2023-09-19T08:20:18;26.30;68.10
63317;DHT22;49822;41.468;13.560;2023-09-19T08:22:52;26.50;66.90
63317;DHT22;49822;41.468;13.560;2023-09-19T08:25:20;26.60;67.00
63317;DHT22;49822;41.468;13.560;2023-09-19T08:27:51;26.80;67.10
63317;DHT22;49822;41.468;13.560;2023-09-19T08:30:20;26.90;67.50
63317;DHT22;49822;41.468;13.560;2023-09-19T08:32:51;27.10;66.50
63317;DHT22;49822;41.468;13.560;2023-09-19T08:35:23;27.20;66.80
63317;DHT22;49822;41.468;13.560;2023-09-19T08:37:49;27.30;66.80
63317;DHT22;49822;41.468;13.560;2023-09-19T08:40:17;27.30;66.70
63317;DHT22;49822;41.468;13.560;2023-09-19T08:42:50;27.50;67.40
63317;DHT22;49822;41.468;13.560;2023-09-19T08:45:17;27.60;65.70
63317;DHT22;49822;41.468;13.560;2023-09-19T08:47:50;27.70;66.00
63317;DHT22;49822;41.468;13.560;2023-09-19T08:50:24;27.70;66.30
63317;DHT22;49822;41.468;13.560;2023-09-19T08:52:52;27.90;66.10
63317;DHT22;49822;41.468;13.560;2023-09-19T08:55:25;28.10;66.50
63317;DHT22;49822;41.468;13.560;2023-09-19T08:57:52;28.20;66.50
63317;DHT22;49822;41.468;13.560;2023-09-19T09:00:29;28.40;66.70
63317;DHT22;49822;41.468;13.560;2023-09-19T09:03:21;28.50;66.20
63317;DHT22;49822;41.468;13.560;2023-09-19T09:05:58;28.50;66.40
63317;DHT22;49822;41.468;13.560;2023-09-19T09:08:25;28.70;66.40
63317;DHT22;49822;41.468;13.560;2023-09-19T09:10:51;28.80;66.50
63317;DHT22;49822;41.468;13.560;2023-09-19T09:13:18;29.00;65.90
63317;DHT22;49822;41.468;13.560;2023-09-19T09:15:46;29.10;64.80
63317;DHT22;49822;41.468;13.560;2023-09-19T09:18:13;29.30;64.40
63317;DHT22;49822;41.468;13.560;2023-09-19T09:20:39;29.30;63.60
63317;DHT22;49822;41.468;13.560;2023-09-19T09:23:05;29.40;63.70
63317;DHT22;49822;41.468;13.560;2023-09-19T09:25:51;29.60;63.10
63317;DHT22;49822;41.468;13.560;2023-09-19T09:28:27;29.60;62.10
63317;DHT22;49822;41.468;13.560;2023-09-19T09:30:55;29.70;62.50
63317;DHT22;49822;41.468;13.560;2023-09-19T09:33:21;29.80;63.30
63317;DHT22;49822;41.468;13.560;2023-09-19T09:38:23;30.00;62.70
63317;DHT22;49822;41.468;13.560;2023-09-19T09:41:00;30.20;62.40
63317;DHT22;49822;41.468;13.560;2023-09-19T09:43:32;30.20;62.10
63317;DHT22;49822;41.468;13.560;2023-09-19T09:46:19;30.40;61.20
63317;DHT22;49822;41.468;13.560;2023-09-19T09:51:46;30.60;60.40
63317;DHT22;49822;41.468;13.560;2023-09-19T09:54:27;30.80;61.00
63317;DHT22;49822;41.468;13.560;2023-09-19T09:57:05;31.00;60.30
63317;DHT22;49822;41.468;13.560;2023-09-19T09:59:51;31.10;59.30
63317;DHT22;49822;41.468;13.560;2023-09-19T10:02:21;31.20;59.90
63317;DHT22;49822;41.468;13.560;2023-09-19T10:04:51;31.40;59.20
63317;DHT22;49822;41.468;13.560;2023-09-19T10:09:52;31.70;57.40
63317;DHT22;49822;41.468;13.560;2023-09-19T10:12:19;31.70;58.00
63317;DHT22;49822;41.468;13.560;2023-09-19T10:14:47;31.80;57.40
63317;DHT22;49822;41.468;13.560;2023-09-19T10:17:18;31.90;56.20
63317;DHT22;49822;41.468;13.560;2023-09-19T10:19:55;32.10;56.20
63317;DHT22;49822;41.468;13.560;2023-09-19T10:22:24;32.20;55.60
63317;DHT22;49822;41.468;13.560;2023-09-19T10:24:53;32.30;54.50
63317;DHT22;49822;41.468;13.560;2023-09-19T10:27:21;32.40;53.50
63317;DHT22;49822;41.468;13.560;2023-09-19T10:29:52;32.50;54.10
63317;DHT22;49822;41.468;13.560;2023-09-19T10:32:23;32.50;50.50
63317;DHT22;49822;41.468;13.560;2023-09-19T10:34:51;32.50;52.40
63317;DHT22;49822;41.468;13.560;2023-09-19T10:37:24;32.70;53.20
63317;DHT22;49822;41.468;13.560;2023-09-19T10:39:53;32.90;52.20
63317;DHT22;49822;41.468;13.560;2023-09-19T10:42:23;33.10;50.70
63317;DHT22;49822;41.468;13.560;2023-09-19T10:44:55;33.10;48.40
63317;DHT22;49822;41.468;13.560;2023-09-19T10:47:26;33.50;51.00
63317;DHT22;49822;41.468;13.560;2023-09-19T10:49:52;33.50;49.40
63317;DHT22;49822;41.468;13.560;2023-09-19T10:52:23;33.60;50.70
63317;DHT22;49822;41.468;13.560;2023-09-19T10:54:54;33.80;49.90
63317;DHT22;49822;41.468;13.560;2023-09-19T10:57:24;34.10;50.00
63317;DHT22;49822;41.468;13.560;2023-09-19T11:00:08;34.30;48.70
63317;DHT22;49822;41.468;13.560;2023-09-19T11:05:39;34.40;46.40
63317;DHT22;49822;41.468;13.560;2023-09-19T11:08:09;34.20;45.60
63317;DHT22;49822;41.468;13.560;2023-09-19T11:10:48;34.20;45.90
63317;DHT22;49822;41.468;13.560;2023-09-19T11:13:29;34.20;47.30
63317;DHT22;49822;41.468;13.560;2023-09-19T11:16:04;34.40;48.20
63317;DHT22;49822;41.468;13.560;2023-09-19T11:27:09;34.90;45.80
63317;DHT22;49822;41.468;13.560;2023-09-19T11:29:37;35.10;47.40
63317;DHT22;49822;41.468;13.560;2023-09-19T11:32:05;35.20;46.90
63317;DHT22;49822;41.468;13.560;2023-09-19T11:34:41;35.40;45.90
63317;DHT22;49822;41.468;13.560;2023-09-19T11:40:26;35.40;45.50
63317;DHT22;49822;41.468;13.560;2023-09-19T11:42:45;35.30;44.20
63317;DHT22;49822;41.468;13.560;2023-09-19T11:48:18;35.40;45.60
63317;DHT22;49822;41.468;13.560;2023-09-19T11:50:48;35.50;45.00
63317;DHT22;49822;41.468;13.560;2023-09-19T11:53:14;35.40;44.20
63317;DHT22;49822;41.468;13.560;2023-09-19T11:55:41;35.30;44.00
63317;DHT22;49822;41.468;13.560;2023-09-19T11:58:14;35.20;46.90
63317;DHT22;49822;41.468;13.560;2023-09-19T12:00:45;34.70;49.70
63317;DHT22;49822;41.468;13.560;2023-09-19T12:03:12;34.20;50.00
63317;DHT22;49822;41.468;13.560;2023-09-19T12:05:40;33.90;51.30
63317;DHT22;49822;41.468;13.560;2023-09-19T12:08:09;33.40;52.80
63317;DHT22;49822;41.468;13.560;2023-09-19T12:10:55;33.30;52.50
63317;DHT22;49822;41.468;13.560;2023-09-19T12:13:22;33.00;53.50
63317;DHT22;49822;41.468;13.560;2023-09-19T12:15:48;33.10;54.20
63317;DHT22;49822;41.468;13.560;2023-09-19T12:18:28;32.70;54.20
63317;DHT22;49822;41.468;13.560;2023-09-19T12:20:56;32.70;54.30
63317;DHT22;49822;41.468;13.560;2023-09-19T12:23:23;32.60;54.10
63317;DHT22;49822;41.468;13.560;2023-09-19T12:25:52;32.50;53.90
63317;DHT22;49822;41.468;13.560;2023-09-19T12:28:20;32.40;54.60
63317;DHT22;49822;41.468;13.560;2023-09-19T12:30:50;32.20;55.40
63317;DHT22;49822;41.468;13.560;2023-09-19T12:33:21;32.20;56.00
63317;DHT22;49822;41.468;13.560;2023-09-19T12:35:51;32.20;54.80
63317;DHT22;49822;41.468;13.560;2023-09-19T12:38:26;32.20;55.10
63317;DHT22;49822;41.468;13.560;2023-09-19T12:40:59;32.30;55.70
63317;DHT22;49822;41.468;13.560;2023-09-19T12:43:29;32.20;56.90
63317;DHT22;49822;41.468;13.560;2023-09-19T12:45:59;32.20;56.90
63317;DHT22;49822;41.468;13.560;2023-09-19T12:48:26;32.30;55.60
63317;DHT22;49822;41.468;13.560;2023-09-19T12:51:11;32.20;55.90
63317;DHT22;49822;41.468;13.560;2023-09-19T12:56:09;32.20;56.00
63317;DHT22;49822;41.468;13.560;2023-09-19T12:58:58;32.50;55.10
63317;DHT22;49822;41.468;13.560;2023-09-19T13:01:29;32.50;54.90
63317;DHT22;49822;41.468;13.560;2023-09-19T13:04:31;32.50;54.80
63317;DHT22;49822;41.468;13.560;2023-09-19T13:07:00;32.60;53.10
63317;DHT22;49822;41.468;13.560;2023-09-19T13:09:31;32.70;53.80
63317;DHT22;49822;41.468;13.560;2023-09-19T13:12:02;32.70;54.60
63317;DHT22;49822;41.468;13.560;2023-09-19T13:14:29;32.70;54.90
63317;DHT22;49822;41.468;13.560;2023-09-19T13:17:09;32.80;54.60
63317;DHT22;49822;41.468;13.560;2023-09-19T13:19:50;32.90;53.90
63317;DHT22;49822;41.468;13.560;2023-09-19T13:22:39;33.00;53.60
63317;DHT22;49822;41.468;13.560;2023-09-19T13:25:17;32.90;53.90
63317;DHT22;49822;41.468;13.560;2023-09-19T13:27:45;33.00;54.00
63317;DHT22;49822;41.468;13.560;2023-09-19T13:30:15;33.20;53.70
63317;DHT22;49822;41.468;13.560;2023-09-19T13:32:41;33.20;54.40
63317;DHT22;49822;41.468;13.560;2023-09-19T13:35:09;33.20;53.80
63317;DHT22;49822;41.468;13.560;2023-09-19T13:37:38;33.40;53.70
63317;DHT22;49822;41.468;13.560;2023-09-19T13:40:13;33.30;53.70
63317;DHT22;49822;41.468;13.560;2023-09-19T13:42:40;33.20;53.50
63317;DHT22;49822;41.468;13.560;2023-09-19T13:45:07;33.30;54.20
63317;DHT22;49822;41.468;13.560;2023-09-19T13:47:38;33.20;53.70
63317;DHT22;49822;41.468;13.560;2023-09-19T13:50:05;33.10;54.40
63317;DHT22;49822;41.468;13.560;2023-09-19T13:52:31;32.90;54.50
63317;DHT22;49822;41.468;13.560;2023-09-19T13:54:58;33.00;55.10
63317;DHT22;49822;41.468;13.560;2023-09-19T13:57:25;33.00;55.80
63317;DHT22;49822;41.468;13.560;2023-09-19T13:59:52;33.10;55.90
63317;DHT22;49822;41.468;13.560;2023-09-19T14:02:21;33.10;56.80
63317;DHT22;49822;41.468;13.560;2023-09-19T14:04:49;32.90;57.00
63317;DHT22;49822;41.468;13.560;2023-09-19T14:07:16;32.80;58.70
63317;DHT22;49822;41.468;13.560;2023-09-19T14:09:43;32.70;58.70
63317;DHT22;49822;41.468;13.560;2023-09-19T14:12:10;32.80;59.20
63317;DHT22;49822;41.468;13.560;2023-09-19T14:14:36;32.90;59.50
63317;DHT22;49822;41.468;13.560;2023-09-19T14:17:03;32.60;60.60
63317;DHT22;49822;41.468;13.560;2023-09-19T14:19:30;32.50;61.00
63317;DHT22;49822;41.468;13.560;2023-09-19T14:21:56;32.20;61.70
63317;DHT22;49822;41.468;13.560;2023-09-19T14:24:23;32.10;61.00
63317;DHT22;49822;41.468;13.560;2023-09-19T14:26:49;32.00;62.20
63317;DHT22;49822;41.468;13.560;2023-09-19T14:29:16;31.90;63.30
63317;DHT22;49822;41.468;13.560;2023-09-19T14:31:43;31.60;64.70
63317;DHT22;49822;41.468;13.560;2023-09-19T14:34:09;31.40;65.70
63317;DHT22;49822;41.468;13.560;2023-09-19T14:36:37;31.60;64.90
63317;DHT22;49822;41.468;13.560;2023-09-19T14:39:04;31.50;64.70
63317;DHT22;49822;41.468;13.560;2023-09-19T14:41:31;31.70;63.40
63317;DHT22;49822;41.468;13.560;2023-09-19T14:43:57;31.50;65.20
63317;DHT22;49822;41.468;13.560;2023-09-19T14:46:23;31.30;65.60
63317;DHT22;49822;41.468;13.560;2023-09-19T14:48:53;31.30;65.90
63317;DHT22;49822;41.468;13.560;2023-09-19T14:51:19;31.20;66.20
63317;DHT22;49822;41.468;13.560;2023-09-19T14:53:46;31.30;66.30
63317;DHT22;49822;41.468;13.560;2023-09-19T14:56:12;31.20;66.30
63317;DHT22;49822;41.468;13.560;2023-09-19T14:58:41;31.10;65.60
63317;DHT22;49822;41.468;13.560;2023-09-19T15:01:12;31.00;66.60
63317;DHT22;49822;41.468;13.560;2023-09-19T15:03:40;30.80;66.60
63317;DHT22;49822;41.468;13.560;2023-09-19T15:06:09;30.90;67.00
63317;DHT22;49822;41.468;13.560;2023-09-19T15:08:37;30.70;66.90
63317;DHT22;49822;41.468;13.560;2023-09-19T15:11:09;30.50;67.40
63317;DHT22;49822;41.468;13.560;2023-09-19T15:13:36;30.30;68.00
63317;DHT22;49822;41.468;13.560;2023-09-19T15:16:07;30.10;68.70
63317;DHT22;49822;41.468;13.560;2023-09-19T15:18:38;30.10;68.60
63317;DHT22;49822;41.468;13.560;2023-09-19T15:21:05;30.00;68.40
63317;DHT22;49822;41.468;13.560;2023-09-19T15:23:32;30.10;68.70
63317;DHT22;49822;41.468;13.560;2023-09-19T15:26:05;30.20;69.00
63317;DHT22;49822;41.468;13.560;2023-09-19T15:28:33;30.00;68.60
63317;DHT22;49822;41.468;13.560;2023-09-19T15:31:04;29.90;68.80
63317;DHT22;49822;41.468;13.560;2023-09-19T15:33:32;29.90;68.60
63317;DHT22;49822;41.468;13.560;2023-09-19T15:36:09;29.90;68.30
63317;DHT22;49822;41.468;13.560;2023-09-19T15:41:29;30.20;67.40
63317;DHT22;49822;41.468;13.560;2023-09-19T15:43:56;30.60;66.10
63317;DHT22;49822;41.468;13.560;2023-09-19T15:46:23;30.60;66.10
63317;DHT22;49822;41.468;13.560;2023-09-19T15:48:49;30.50;66.10
63317;DHT22;49822;41.468;13.560;2023-09-19T15:51:16;30.50;65.60
63317;DHT22;49822;41.468;13.560;2023-09-19T15:53:45;30.30;66.60
63317;DHT22;49822;41.468;13.560;2023-09-19T15:56:13;30.10;67.20
63317;DHT22;49822;41.468;13.560;2023-09-19T15:58:44;30.10;68.00
63317;DHT22;49822;41.468;13.560;2023-09-19T16:01:10;29.90;68.20
63317;DHT22;49822;41.468;13.560;2023-09-19T16:03:45;30.00;68.00
63317;DHT22;49822;41.468;13.560;2023-09-19T16:06:17;30.00;68.10
63317;DHT22;49822;41.468;13.560;2023-09-19T16:08:50;30.10;68.30
63317;DHT22;49822;41.468;13.560;2023-09-19T16:11:17;30.00;68.00
63317;DHT22;49822;41.468;13.560;2023-09-19T16:13:47;29.80;68.60
63317;DHT22;49822;41.468;13.560;2023-09-19T16:16:15;29.60;69.50
63317;DHT22;49822;41.468;13.560;2023-09-19T16:18:47;29.50;70.00
63317;DHT22;49822;41.468;13.560;2023-09-19T16:21:18;29.50;69.50
63317;DHT22;49822;41.468;13.560;2023-09-19T16:23:47;29.40;70.00
63317;DHT22;49822;41.468;13.560;2023-09-19T16:26:16;29.10;70.50